createdAt,value
2019-02-09T00:00:00.415Z,2.30
2019-02-09T00:02:32.291Z,2.30
2019-02-09T00:05:04.231Z,2.30
2019-02-09T00:07:36.103Z,2.30
2019-02-09T00:10:08.065Z,2.30
2019-02-09T00:12:39.833Z,2.30
2019-02-09T00:15:11.771Z,2.30
2019-02-09T00:17:43.591Z,2.30
2019-02-09T00:20:15.555Z,2.30
2019-02-09T00:22:48.775Z,2.30
2019-02-09T00:25:22.059Z,2.40
2019-02-09T00:27:54.047Z,2.40
2019-02-09T00:30:25.964Z,2.30
2019-02-09T00:32:57.897Z,2.30
2019-02-09T00:35:31.164Z,2.30
2019-02-09T00:38:03.093Z,2.20
2019-02-09T00:40:34.917Z,2.20
2019-02-09T00:43:06.875Z,2.10
2019-02-09T00:45:39.093Z,2.10
2019-02-09T00:48:10.954Z,2.10
2019-02-09T00:50:42.898Z,2.00
2019-02-09T00:53:14.769Z,2.00
2019-02-09T00:55:46.689Z,2.00
2019-02-09T00:58:18.450Z,1.90
2019-02-09T01:00:50.252Z,2.00
2019-02-09T01:03:24.978Z,2.00
2019-02-09T01:05:56.958Z,1.90
2019-02-09T01:08:28.868Z,1.90
2019-02-09T01:11:00.687Z,1.90
2019-02-09T01:13:32.572Z,1.90
2019-02-09T01:16:05.926Z,1.80
2019-02-09T01:18:37.694Z,1.80
2019-02-09T01:21:09.547Z,1.80
2019-02-09T01:23:42.628Z,1.80
2019-02-09T01:26:14.454Z,1.80
2019-02-09T01:28:46.362Z,1.70
2019-02-09T01:31:18.388Z,1.80
2019-02-09T01:33:50.268Z,1.80
2019-02-09T01:36:22.263Z,1.80
2019-02-09T01:38:54.178Z,1.80
2019-02-09T01:41:26.122Z,1.80
2019-02-09T01:43:57.893Z,1.70
2019-02-09T01:46:29.724Z,1.60
2019-02-09T01:49:02.821Z,1.60
2019-02-09T01:51:34.668Z,1.60
2019-02-09T01:54:06.551Z,1.60
2019-02-09T01:56:38.362Z,1.50
2019-02-09T01:59:10.131Z,1.60
2019-02-09T02:01:42.124Z,1.60
2019-02-09T02:04:14.020Z,1.60
2019-02-09T02:06:45.808Z,1.70
2019-02-09T02:09:18.587Z,1.80
2019-02-09T02:11:50.384Z,1.90
2019-02-09T02:14:29.731Z,2.00
2019-02-09T02:17:01.583Z,2.10
2019-02-09T02:19:33.510Z,2.20
2019-02-09T02:22:08.372Z,2.30
2019-02-09T02:24:40.185Z,2.30
2019-02-09T02:27:12.091Z,2.40
2019-02-09T02:29:45.362Z,2.50
2019-02-09T02:32:17.266Z,2.60
2019-02-09T02:34:49.158Z,2.70
2019-02-09T02:37:21.043Z,2.80
2019-02-09T02:39:52.833Z,2.90
2019-02-09T02:42:25.999Z,3.00
2019-02-09T02:44:57.913Z,3.10
2019-02-09T02:47:29.730Z,3.30
2019-02-09T02:50:01.530Z,3.40
2019-02-09T02:52:33.366Z,3.40
2019-02-09T02:55:05.921Z,3.50
2019-02-09T02:57:37.785Z,3.60
2019-02-09T03:00:15.198Z,3.70
2019-02-09T03:02:47.003Z,3.80
2019-02-09T03:05:20.295Z,3.80
2019-02-09T03:07:52.212Z,3.80
2019-02-09T03:10:25.446Z,3.80
2019-02-09T03:12:57.286Z,3.90
2019-02-09T03:15:30.213Z,3.80
2019-02-09T03:18:03.440Z,3.90
2019-02-09T03:20:35.334Z,3.90
2019-02-09T03:23:07.230Z,4.00
2019-02-09T03:25:39.024Z,4.10
2019-02-09T03:28:10.919Z,4.10
2019-02-09T03:30:47.949Z,4.20
2019-02-09T03:33:17.660Z,4.20
2019-02-09T03:35:49.491Z,4.30
2019-02-09T03:38:21.344Z,4.40
2019-02-09T03:40:53.116Z,4.50
2019-02-09T03:43:25.097Z,4.50
2019-02-09T03:45:57.213Z,4.50
2019-02-09T03:48:29.275Z,4.60
2019-02-09T03:51:01.612Z,4.60
2019-02-09T03:53:34.597Z,4.60
2019-02-09T03:56:09.176Z,4.70
2019-02-09T03:58:41.286Z,4.70
2019-02-09T04:01:14.698Z,4.70
2019-02-09T04:03:47.044Z,4.70
2019-02-09T04:06:19.106Z,4.70
2019-02-09T04:08:51.473Z,4.70
2019-02-09T04:11:23.591Z,4.70
2019-02-09T04:13:55.753Z,4.60
2019-02-09T04:16:28.047Z,4.60
2019-02-09T04:19:00.480Z,4.60
2019-02-09T04:21:33.168Z,4.50
2019-02-09T04:24:06.615Z,4.50
2019-02-09T04:26:39.691Z,4.50
2019-02-09T04:29:14.064Z,4.40
2019-02-09T04:31:45.995Z,4.40
2019-02-09T04:34:17.949Z,4.30
2019-02-09T04:36:53.470Z,4.40
2019-02-09T04:39:25.319Z,4.40
2019-02-09T04:41:58.508Z,4.40
2019-02-09T04:44:31.703Z,4.40
2019-02-09T04:47:04.537Z,4.40
2019-02-09T04:49:36.639Z,4.40
2019-02-09T04:52:10.548Z,4.40
2019-02-09T04:54:42.860Z,4.40
2019-02-09T04:57:14.844Z,4.40
2019-02-09T04:59:47.382Z,4.40
2019-02-09T05:02:19.727Z,4.40
2019-02-09T05:04:51.845Z,4.40
2019-02-09T05:07:25.287Z,4.50
2019-02-09T05:09:58.283Z,4.50
2019-02-09T05:12:33.169Z,4.60
2019-02-09T05:15:07.034Z,4.60
2019-02-09T05:17:39.998Z,4.50
2019-02-09T05:20:17.179Z,4.40
2019-02-09T05:22:51.438Z,4.40
2019-02-09T05:25:25.133Z,4.30
2019-02-09T05:27:59.778Z,4.30
2019-02-09T05:30:32.806Z,4.30
2019-02-09T05:33:04.858Z,4.20
2019-02-09T05:35:36.819Z,4.30
2019-02-09T05:38:10.033Z,4.30
2019-02-09T05:40:42.178Z,4.40
2019-02-09T05:43:14.109Z,4.30
2019-02-09T05:45:47.118Z,4.30
2019-02-09T05:48:19.116Z,4.40
2019-02-09T05:50:51.173Z,4.40
2019-02-09T05:53:24.738Z,4.40
2019-02-09T05:55:58.159Z,4.40
2019-02-09T05:58:30.407Z,4.40
2019-02-09T06:01:02.537Z,4.40
2019-02-09T06:03:35.059Z,4.40
2019-02-09T06:06:08.357Z,4.40
2019-02-09T06:08:40.554Z,4.40
2019-02-09T06:11:13.817Z,4.40
2019-02-09T06:13:45.866Z,4.40
2019-02-09T06:16:18.205Z,4.40
2019-02-09T06:18:50.409Z,4.40
2019-02-09T06:21:22.536Z,4.40
2019-02-09T06:23:54.915Z,4.30
2019-02-09T06:26:27.121Z,4.30
2019-02-09T06:29:00.160Z,4.30
2019-02-09T06:31:40.255Z,4.20
2019-02-09T06:34:06.071Z,4.20
2019-02-09T06:36:39.126Z,4.20
2019-02-09T06:39:11.195Z,4.30
2019-02-09T06:41:45.007Z,4.40
2019-02-09T06:44:17.185Z,4.40
2019-02-09T06:46:49.323Z,4.40
2019-02-09T06:49:21.530Z,4.50
2019-02-09T06:51:53.571Z,4.50
2019-02-09T06:54:26.846Z,4.60
2019-02-09T06:56:58.894Z,4.60
2019-02-09T06:59:31.999Z,4.70
2019-02-09T07:02:05.436Z,4.80
2019-02-09T07:04:37.482Z,4.80
2019-02-09T07:07:14.368Z,4.90
2019-02-09T07:09:46.383Z,4.90
2019-02-09T07:12:19.601Z,5.00
2019-02-09T07:14:53.163Z,5.10
2019-02-09T07:17:25.537Z,5.20
2019-02-09T07:19:58.762Z,5.30
2019-02-09T07:22:30.927Z,5.40
2019-02-09T07:25:03.110Z,5.50
2019-02-09T07:27:35.406Z,5.70
2019-02-09T07:30:09.649Z,5.80
2019-02-09T07:32:41.621Z,6.00
2019-02-09T07:35:14.479Z,6.20
2019-02-09T07:37:47.604Z,6.30
2019-02-09T07:40:21.225Z,6.30
2019-02-09T07:42:53.540Z,6.30
2019-02-09T07:45:26.901Z,6.40
2019-02-09T07:48:01.609Z,6.60
2019-02-09T07:50:33.534Z,6.80
2019-02-09T07:53:07.709Z,7.00
2019-02-09T07:55:39.870Z,7.10
2019-02-09T07:58:11.891Z,7.20
2019-02-09T08:00:43.854Z,7.40
2019-02-09T08:03:16.059Z,7.60
2019-02-09T08:05:49.397Z,7.70
2019-02-09T08:08:22.823Z,7.80
2019-02-09T08:10:57.283Z,8.00
2019-02-09T08:13:29.487Z,8.10
2019-02-09T08:16:03.183Z,8.30
2019-02-09T08:18:35.541Z,8.50
2019-02-09T08:21:08.660Z,8.60
2019-02-09T08:23:41.734Z,8.60
2019-02-09T08:26:14.791Z,8.50
2019-02-09T08:28:47.013Z,8.50
2019-02-09T08:31:18.988Z,8.50
2019-02-09T08:33:52.625Z,8.50
2019-02-09T08:36:25.089Z,8.50
2019-02-09T08:38:58.545Z,8.50
2019-02-09T08:41:30.480Z,8.40
2019-02-09T08:44:02.591Z,8.40
2019-02-09T08:46:34.569Z,8.40
2019-02-09T08:49:06.802Z,8.50
2019-02-09T08:51:39.143Z,8.60
2019-02-09T08:54:13.780Z,8.60
2019-02-09T08:56:45.890Z,8.60
2019-02-09T08:59:17.986Z,8.60
2019-02-09T09:01:49.811Z,8.70
2019-02-09T09:04:21.868Z,8.90
2019-02-09T09:06:55.983Z,9.00
2019-02-09T09:09:29.041Z,9.20
2019-02-09T09:12:01.316Z,9.30
2019-02-09T09:14:33.652Z,9.40
2019-02-09T09:17:05.854Z,9.40
2019-02-09T09:19:37.781Z,9.40
2019-02-09T09:22:10.198Z,9.50
2019-02-09T09:24:42.336Z,9.50
2019-02-09T09:27:16.168Z,9.60
2019-02-09T09:29:49.623Z,9.50
2019-02-09T09:32:28.512Z,9.60
2019-02-09T09:34:56.100Z,9.70
2019-02-09T09:37:29.621Z,9.80
2019-02-09T09:40:02.873Z,10.00
2019-02-09T09:42:34.779Z,10.00
2019-02-09T09:45:07.502Z,9.90
2019-02-09T09:47:39.921Z,9.90
2019-02-09T09:50:13.991Z,9.90
2019-02-09T09:52:46.266Z,9.90
2019-02-09T09:55:18.689Z,9.90
2019-02-09T09:57:50.667Z,9.90
2019-02-09T10:00:24.309Z,9.80
2019-02-09T10:02:56.497Z,10.10
2019-02-09T10:05:29.490Z,10.30
2019-02-09T10:08:01.910Z,10.40
2019-02-09T10:10:33.919Z,10.50
2019-02-09T10:13:06.358Z,10.50
2019-02-09T10:15:39.555Z,10.60
2019-02-09T10:18:12.607Z,10.70
2019-02-09T10:20:46.205Z,10.90
2019-02-09T10:23:18.323Z,10.90
2019-02-09T10:25:50.731Z,10.90
2019-02-09T10:28:23.214Z,11.00
2019-02-09T10:30:56.149Z,11.10
2019-02-09T10:33:28.392Z,11.20
2019-02-09T10:36:01.645Z,11.20
2019-02-09T10:38:38.650Z,11.10
2019-02-09T10:41:10.673Z,11.20
2019-02-09T10:43:43.201Z,11.10
2019-02-09T10:46:17.489Z,11.20
2019-02-09T10:48:51.911Z,11.10
2019-02-09T10:51:24.109Z,11.10
2019-02-09T10:53:56.427Z,11.30
2019-02-09T10:56:28.382Z,11.60
2019-02-09T10:59:00.611Z,12.00
2019-02-09T11:01:32.821Z,12.50
2019-02-09T11:04:05.200Z,12.70
2019-02-09T11:06:38.084Z,12.90
2019-02-09T11:09:17.760Z,13.00
2019-02-09T11:11:49.997Z,13.00
2019-02-09T11:14:23.060Z,12.70
2019-02-09T11:16:57.494Z,12.60
2019-02-09T11:19:29.679Z,12.60
2019-02-09T11:22:02.836Z,12.60
2019-02-09T11:24:35.224Z,12.60
2019-02-09T11:27:08.624Z,12.60
2019-02-09T11:29:42.187Z,12.50
2019-02-09T11:32:15.310Z,12.40
2019-02-09T11:34:47.226Z,12.40
2019-02-09T11:37:20.340Z,12.40
2019-02-09T11:39:54.625Z,12.20
2019-02-09T11:42:26.456Z,12.10
2019-02-09T11:44:58.991Z,12.10
2019-02-09T11:47:32.531Z,11.90
2019-02-09T11:50:06.508Z,11.70
2019-02-09T11:52:38.638Z,11.60
2019-02-09T11:55:11.174Z,11.50
2019-02-09T11:57:43.311Z,11.50
2019-02-09T12:00:21.168Z,11.60
2019-02-09T12:02:53.545Z,11.70
2019-02-09T12:05:27.191Z,12.00
2019-02-09T12:08:00.788Z,12.20
2019-02-09T12:10:32.843Z,12.40
2019-02-09T12:13:06.771Z,12.50
2019-02-09T12:15:39.323Z,12.40
2019-02-09T12:18:12.468Z,12.40
2019-02-09T12:20:46.931Z,12.50
2019-02-09T12:23:20.246Z,12.50
2019-02-09T12:25:53.331Z,12.60
2019-02-09T12:28:25.537Z,12.60
2019-02-09T12:30:57.648Z,12.70
2019-02-09T12:33:31.562Z,12.80
2019-02-09T12:36:05.078Z,12.90
2019-02-09T12:38:37.126Z,12.80
2019-02-09T12:41:09.273Z,12.90
2019-02-09T12:43:41.543Z,12.90
2019-02-09T12:46:13.894Z,12.90
2019-02-09T12:48:46.107Z,13.00
2019-02-09T12:51:18.203Z,12.80
2019-02-09T12:53:50.226Z,12.60
2019-02-09T12:56:26.162Z,12.50
2019-02-09T12:59:00.002Z,12.40
2019-02-09T13:01:33.051Z,12.40
2019-02-09T13:04:05.612Z,12.40
2019-02-09T13:06:39.213Z,12.30
2019-02-09T13:09:11.611Z,12.00
2019-02-09T13:11:43.675Z,11.90
2019-02-09T13:14:16.440Z,11.70
2019-02-09T13:16:49.713Z,11.70
2019-02-09T13:19:23.185Z,11.70
2019-02-09T13:21:56.674Z,11.80
2019-02-09T13:24:30.958Z,12.00
2019-02-09T13:27:03.031Z,12.30
2019-02-09T13:29:37.831Z,12.50
2019-02-09T13:32:09.761Z,12.90
2019-02-09T13:34:41.975Z,13.10
2019-02-09T13:37:14.118Z,13.20
2019-02-09T13:39:47.344Z,13.20
2019-02-09T13:42:19.580Z,13.20
2019-02-09T13:44:51.861Z,13.30
2019-02-09T13:47:25.074Z,13.30
2019-02-09T13:49:57.010Z,13.40
2019-02-09T13:52:31.081Z,13.50
2019-02-09T13:55:03.241Z,13.60
2019-02-09T13:57:36.691Z,13.80
2019-02-09T14:00:13.006Z,13.90
2019-02-09T14:02:46.205Z,14.00
2019-02-09T14:05:18.428Z,14.00
2019-02-09T14:07:50.919Z,14.00
2019-02-09T14:10:24.547Z,13.90
2019-02-09T14:12:56.974Z,13.50
2019-02-09T14:15:30.917Z,13.30
2019-02-09T14:18:04.396Z,13.10
2019-02-09T14:20:36.781Z,12.90
2019-02-09T14:23:09.009Z,12.80
2019-02-09T14:25:43.687Z,12.60
2019-02-09T14:28:16.139Z,12.40
2019-02-09T14:30:48.325Z,12.30
2019-02-09T14:33:24.247Z,12.30
2019-02-09T14:35:56.185Z,12.30
2019-02-09T14:38:28.243Z,12.20
2019-02-09T14:41:00.447Z,12.20
2019-02-09T14:43:33.600Z,12.20
2019-02-09T14:46:06.863Z,12.20
2019-02-09T14:48:38.940Z,12.10
2019-02-09T14:51:13.696Z,11.90
2019-02-09T14:53:48.164Z,11.80
2019-02-09T14:56:22.541Z,11.80
2019-02-09T14:58:54.556Z,11.70
2019-02-09T15:01:27.882Z,11.60
2019-02-09T15:04:03.033Z,11.50
2019-02-09T15:06:37.905Z,11.40
2019-02-09T15:09:10.478Z,11.20
2019-02-09T15:11:42.575Z,11.20
2019-02-09T15:14:15.534Z,11.10
2019-02-09T15:16:55.492Z,11.10
2019-02-09T15:19:34.249Z,11.00
2019-02-09T15:22:08.130Z,11.00
2019-02-09T15:24:41.873Z,10.90
2019-02-09T15:27:14.018Z,10.90
2019-02-09T15:29:46.077Z,10.80
2019-02-09T15:32:18.382Z,10.80
2019-02-09T15:34:50.800Z,10.70
2019-02-09T15:37:22.807Z,10.70
2019-02-09T15:39:54.995Z,10.70
2019-02-09T15:42:28.280Z,10.60
2019-02-09T15:45:03.611Z,10.50
2019-02-09T15:47:37.952Z,10.50
2019-02-09T15:50:10.588Z,10.40
2019-02-09T15:52:44.479Z,10.40
2019-02-09T15:55:18.475Z,10.30
2019-02-09T15:57:50.785Z,10.20
2019-02-09T16:00:27.006Z,10.20
2019-02-09T16:03:00.230Z,10.10
2019-02-09T16:05:33.363Z,10.10
2019-02-09T16:08:05.510Z,10.10
2019-02-09T16:10:37.464Z,10.10
2019-02-09T16:13:09.329Z,10.00
2019-02-09T16:15:41.293Z,10.00
2019-02-09T16:18:17.714Z,9.90
2019-02-09T16:20:50.533Z,9.90
2019-02-09T16:23:23.617Z,9.90
2019-02-09T16:25:55.443Z,9.80
2019-02-09T16:28:28.322Z,9.80
2019-02-09T16:31:01.230Z,9.80
2019-02-09T16:33:33.153Z,9.80
2019-02-09T16:36:06.165Z,9.80
2019-02-09T16:38:40.582Z,9.70
2019-02-09T16:41:12.504Z,9.60
2019-02-09T16:43:44.357Z,9.60
2019-02-09T16:46:17.392Z,9.60
2019-02-09T16:48:49.322Z,9.60
2019-02-09T16:51:21.330Z,9.60
2019-02-09T16:54:02.839Z,9.60
2019-02-09T16:56:36.270Z,9.50
2019-02-09T16:59:09.158Z,9.50
2019-02-09T17:01:43.212Z,9.40
2019-02-09T17:04:33.088Z,9.40
2019-02-09T17:06:59.844Z,9.40
2019-02-09T17:09:32.293Z,9.30
2019-02-09T17:12:05.542Z,9.30
2019-02-09T17:14:38.666Z,9.30
2019-02-09T17:17:10.872Z,9.30
2019-02-09T17:19:44.241Z,9.30
2019-02-09T17:22:17.635Z,9.30
2019-02-09T17:24:52.049Z,9.30
2019-02-09T17:27:25.738Z,9.30
2019-02-09T17:30:03.243Z,9.30
2019-02-09T17:32:36.486Z,9.30
2019-02-09T17:35:10.905Z,9.30
2019-02-09T17:37:43.149Z,9.30
2019-02-09T17:40:19.061Z,9.20
2019-02-09T17:42:53.265Z,9.20
2019-02-09T17:45:37.050Z,9.10
2019-02-09T17:48:10.720Z,8.80
2019-02-09T17:50:42.779Z,8.70
2019-02-09T17:53:15.714Z,8.50
2019-02-09T17:55:48.158Z,8.30
2019-02-09T17:58:22.237Z,8.00
2019-02-09T18:01:15.351Z,7.90
2019-02-09T18:03:47.335Z,7.80
2019-02-09T18:06:21.427Z,7.60
2019-02-09T18:08:54.940Z,7.60
2019-02-09T18:11:27.281Z,7.60
2019-02-09T18:14:00.564Z,7.50
2019-02-09T18:16:32.671Z,7.50
2019-02-09T18:19:06.064Z,7.50
2019-02-09T18:21:38.655Z,7.40
2019-02-09T18:24:11.596Z,7.30
2019-02-09T18:26:44.696Z,7.20
2019-02-09T18:29:18.016Z,7.10
2019-02-09T18:31:50.041Z,7.10
2019-02-09T18:34:22.114Z,7.10
2019-02-09T18:36:54.426Z,7.10
2019-02-09T18:39:26.651Z,7.00
2019-02-09T18:41:59.684Z,7.10
2019-02-09T18:44:33.425Z,7.10
2019-02-09T18:47:07.352Z,7.10
2019-02-09T18:49:39.574Z,7.20
2019-02-09T18:52:11.812Z,7.30
2019-02-09T18:54:45.266Z,7.40
2019-02-09T18:57:17.552Z,7.50
2019-02-09T18:59:50.452Z,7.60
2019-02-09T19:02:23.636Z,7.70
2019-02-09T19:05:03.974Z,7.70
2019-02-09T19:07:30.615Z,7.80
2019-02-09T19:10:02.762Z,7.70
2019-02-09T19:12:34.856Z,7.70
2019-02-09T19:15:08.517Z,7.70
2019-02-09T19:17:40.853Z,7.70
2019-02-09T19:20:17.018Z,7.80
2019-02-09T19:22:49.160Z,7.70
2019-02-09T19:25:22.947Z,7.80
2019-02-09T19:27:55.125Z,7.80
2019-02-09T19:30:28.587Z,7.80
2019-02-09T19:33:01.644Z,7.80
2019-02-09T19:35:36.155Z,7.80
2019-02-09T19:38:09.171Z,7.80
2019-02-09T19:40:42.287Z,7.70
2019-02-09T19:43:17.020Z,7.70
2019-02-09T19:45:53.476Z,7.80
2019-02-09T19:48:27.254Z,7.90
2019-02-09T19:51:00.263Z,7.90
2019-02-09T19:53:32.339Z,7.90
2019-02-09T19:56:04.562Z,7.90
2019-02-09T19:58:36.796Z,7.90
2019-02-09T20:01:08.809Z,7.90
2019-02-09T20:03:41.979Z,8.00
2019-02-09T20:06:16.220Z,8.00
2019-02-09T20:08:48.574Z,8.00
2019-02-09T20:11:20.637Z,8.00
2019-02-09T20:13:52.773Z,7.90
2019-02-09T20:16:27.005Z,8.00
2019-02-09T20:18:59.130Z,8.00
2019-02-09T20:21:32.320Z,8.10
2019-02-09T20:24:05.670Z,8.10
2019-02-09T20:26:37.616Z,8.10
2019-02-09T20:29:10.614Z,8.00
2019-02-09T20:31:42.814Z,7.90
2019-02-09T20:34:15.804Z,7.80
2019-02-09T20:36:47.809Z,7.70
2019-02-09T20:39:20.832Z,7.60
2019-02-09T20:41:52.855Z,7.50
2019-02-09T20:44:25.089Z,7.40
2019-02-09T20:46:58.081Z,7.20
2019-02-09T20:49:30.302Z,7.20
2019-02-09T20:52:02.355Z,7.00
2019-02-09T20:54:34.453Z,6.90
2019-02-09T20:57:06.346Z,6.90
2019-02-09T20:59:41.425Z,6.90
2019-02-09T21:02:14.505Z,6.90
2019-02-09T21:04:46.756Z,6.90
2019-02-09T21:07:24.209Z,6.90
2019-02-09T21:09:52.677Z,6.90
2019-02-09T21:12:24.902Z,6.80
2019-02-09T21:14:58.039Z,6.70
2019-02-09T21:17:30.414Z,6.70
2019-02-09T21:20:02.491Z,6.60
2019-02-09T21:22:34.456Z,6.60
2019-02-09T21:25:08.260Z,6.60
2019-02-09T21:27:41.967Z,6.70
2019-02-09T21:30:16.252Z,6.70
2019-02-09T21:32:48.889Z,6.90
2019-02-09T21:35:23.017Z,6.90
2019-02-09T21:37:55.133Z,6.90
2019-02-09T21:40:28.019Z,6.90
2019-02-09T21:43:00.945Z,6.80
2019-02-09T21:45:33.860Z,6.80
2019-02-09T21:48:07.258Z,6.70
2019-02-09T21:50:39.567Z,6.70
2019-02-09T21:53:13.911Z,6.60
2019-02-09T21:55:46.007Z,6.50
2019-02-09T21:58:18.410Z,6.40
2019-02-09T22:00:51.596Z,6.30
2019-02-09T22:03:23.758Z,6.20
2019-02-09T22:05:57.175Z,6.00
2019-02-09T22:08:31.647Z,6.00
2019-02-09T22:11:03.255Z,5.90
2019-02-09T22:13:38.070Z,5.80
2019-02-09T22:16:10.099Z,5.70
2019-02-09T22:18:43.170Z,5.60
2019-02-09T22:21:15.406Z,5.60
2019-02-09T22:23:49.763Z,5.50
2019-02-09T22:26:22.730Z,5.40
2019-02-09T22:28:54.843Z,5.30
2019-02-09T22:31:29.109Z,5.30
2019-02-09T22:34:01.077Z,5.30
2019-02-09T22:36:37.189Z,5.20
2019-02-09T22:39:10.368Z,5.20
2019-02-09T22:41:48.966Z,5.30
2019-02-09T22:44:19.084Z,5.40
2019-02-09T22:46:52.352Z,5.50
2019-02-09T22:49:25.572Z,5.60
2019-02-09T22:51:58.009Z,5.70
2019-02-09T22:54:30.255Z,5.70
2019-02-09T22:57:02.840Z,5.70
2019-02-09T22:59:34.840Z,5.70
2019-02-09T23:02:08.473Z,5.80
2019-02-09T23:04:52.982Z,5.70
2019-02-09T23:07:31.724Z,5.60
2019-02-09T23:10:07.568Z,5.60
2019-02-09T23:12:39.772Z,5.50
2019-02-09T23:15:12.421Z,5.50
2019-02-09T23:17:47.115Z,5.50
2019-02-09T23:20:19.249Z,5.40
2019-02-09T23:22:51.245Z,5.40
2019-02-09T23:25:23.538Z,5.30
2019-02-09T23:27:55.659Z,5.30
2019-02-09T23:30:29.811Z,5.30
2019-02-09T23:33:03.013Z,5.30
2019-02-09T23:35:35.332Z,5.20
2019-02-09T23:38:07.896Z,5.20
2019-02-09T23:40:39.911Z,5.30
2019-02-09T23:43:11.846Z,5.30
2019-02-09T23:45:44.027Z,5.40
2019-02-09T23:48:15.893Z,5.40
2019-02-09T23:50:48.064Z,5.50
2019-02-09T23:53:22.146Z,5.50
2019-02-09T23:55:56.463Z,5.50
2019-02-09T23:58:28.757Z,5.50
